createdAt,value
2017-08-16T00:01:18.181Z,1017.3
2017-08-16T00:06:23.927Z,1017.3
2017-08-16T00:11:29.699Z,1017.3
2017-08-16T00:16:35.457Z,1017.3
2017-08-16T00:21:40.896Z,1017.3
2017-08-16T00:26:46.644Z,1017.3
2017-08-16T00:31:52.724Z,1017.4
2017-08-16T00:36:57.145Z,1017.3
2017-08-16T00:42:02.223Z,1017.4
2017-08-16T00:47:07.647Z,1017.4
2017-08-16T00:52:13.397Z,1017.2
2017-08-16T00:57:18.816Z,1017.3
2017-08-16T01:02:24.241Z,1017.5
2017-08-16T01:07:30.326Z,1017.5
2017-08-16T01:12:35.743Z,1017.5
2017-08-16T01:17:41.886Z,1017.6
2017-08-16T01:22:47.295Z,1017.5
2017-08-16T01:27:53.389Z,1017.6
2017-08-16T01:32:58.797Z,1017.7
2017-08-16T01:38:04.214Z,1017.8
2017-08-16T01:43:09.725Z,1017.8
2017-08-16T01:48:15.476Z,1017.8
2017-08-16T01:53:21.097Z,1017.8
2017-08-16T01:58:26.838Z,1017.9
2017-08-16T02:03:32.248Z,1017.9
2017-08-16T02:08:38.325Z,1017.9
2017-08-16T02:13:44.069Z,1017.9
2017-08-16T02:18:49.816Z,1017.8
2017-08-16T02:23:54.212Z,1018.1
2017-08-16T02:28:59.622Z,1018
2017-08-16T02:34:05.033Z,1018
2017-08-16T02:39:10.442Z,1018.1
2017-08-16T02:44:16.525Z,1018.1
2017-08-16T02:49:22.262Z,1018.2
2017-08-16T02:54:27.338Z,1018.2
2017-08-16T02:59:32.752Z,1018.2
2017-08-16T03:04:38.492Z,1018.2
2017-08-16T03:09:43.567Z,1018.2
2017-08-16T03:14:49.646Z,1018.3
2017-08-16T03:19:54.724Z,1018.4
2017-08-16T03:25:00.471Z,1018.3
2017-08-16T03:30:05.942Z,1018.4
2017-08-16T03:35:11.290Z,1018.4
2017-08-16T03:40:16.365Z,1018.4
2017-08-16T03:45:21.774Z,1018.5
2017-08-16T03:50:27.184Z,1018.6
2017-08-16T03:55:32.929Z,1018.6
2017-08-16T04:00:38.334Z,1018.7
2017-08-16T04:05:44.412Z,1018.8
2017-08-16T04:10:50.497Z,1018.9
2017-08-16T04:15:56.239Z,1018.9
2017-08-16T04:21:02.322Z,1019.1
2017-08-16T04:26:08.065Z,1019.2
2017-08-16T04:31:13.812Z,1019.1
2017-08-16T04:36:19.896Z,1019.2
2017-08-16T04:41:25.980Z,1019.3
2017-08-16T04:46:31.392Z,1019.3
2017-08-16T04:51:37.148Z,1019.4
2017-08-16T04:56:42.561Z,1019.4
2017-08-16T05:01:47.975Z,1019.6
2017-08-16T05:06:53.718Z,1019.7
2017-08-16T05:11:59.463Z,1019.7
2017-08-16T05:17:05.543Z,1019.7
2017-08-16T05:22:10.962Z,1019.9
2017-08-16T05:27:16.715Z,1019.9
2017-08-16T05:32:21.455Z,1020
2017-08-16T05:37:27.206Z,1020
2017-08-16T05:42:32.944Z,1020.1
2017-08-16T05:47:39.023Z,1020.2
2017-08-16T05:52:44.098Z,1020.2
2017-08-16T05:57:49.176Z,1020.3
2017-08-16T06:02:54.592Z,1020.4
2017-08-16T06:07:59.999Z,1020.5
2017-08-16T06:13:05.747Z,1020.6
2017-08-16T06:18:11.493Z,1020.7
2017-08-16T06:23:16.906Z,1020.7
2017-08-16T06:28:22.649Z,1020.7
2017-08-16T06:33:28.062Z,1020.7
2017-08-16T06:38:34.147Z,1020.8
2017-08-16T06:43:39.559Z,1020.8
2017-08-16T06:48:44.972Z,1021
2017-08-16T06:53:50.053Z,1021
2017-08-16T06:58:55.184Z,1020.9
2017-08-16T07:04:01.264Z,1021
2017-08-16T07:09:07.013Z,1021
2017-08-16T07:14:12.763Z,1020.9
2017-08-16T07:19:18.850Z,1021
2017-08-16T07:24:23.256Z,1021
2017-08-16T07:29:28.670Z,1021
2017-08-16T07:34:34.514Z,1021.1
2017-08-16T07:39:40.601Z,1021.2
2017-08-16T07:44:45.679Z,1021.2
2017-08-16T07:49:51.429Z,1021.3
2017-08-16T07:54:57.173Z,1021.3
2017-08-16T08:00:02.590Z,1021.4
2017-08-16T08:05:07.661Z,1021.5
2017-08-16T08:10:13.074Z,1021.6
2017-08-16T08:15:18.154Z,1021.6
2017-08-16T08:20:23.956Z,1021.6
2017-08-16T08:25:29.711Z,1021.7
2017-08-16T08:30:35.466Z,1021.7
2017-08-16T08:35:41.222Z,1021.8
2017-08-16T08:40:46.655Z,1021.8
2017-08-16T08:45:51.408Z,1021.7
2017-08-16T08:50:57.168Z,1021.8
2017-08-16T08:56:02.934Z,1021.8
2017-08-16T09:01:08.028Z,1021.7
2017-08-16T09:06:13.461Z,1021.6
2017-08-16T09:11:19.226Z,1021.6
2017-08-16T09:16:25.322Z,1021.7
2017-08-16T09:21:30.419Z,1021.8
2017-08-16T09:26:36.182Z,1021.8
2017-08-16T09:31:42.284Z,1021.8
2017-08-16T09:36:48.048Z,1021.8
2017-08-16T09:41:53.479Z,1021.8
2017-08-16T09:46:59.248Z,1021.8
2017-08-16T09:52:04.343Z,1021.8
2017-08-16T09:57:10.445Z,1021.9
2017-08-16T10:02:15.875Z,1021.9
2017-08-16T10:07:21.306Z,1021.9
2017-08-16T10:12:26.737Z,1021.9
2017-08-16T10:17:32.501Z,1022
2017-08-16T10:22:38.265Z,1022
2017-08-16T10:27:44.362Z,1022
2017-08-16T10:32:49.787Z,1022
2017-08-16T10:37:55.211Z,1022.1
2017-08-16T10:43:00.642Z,1022.1
2017-08-16T10:48:06.449Z,1022.2
2017-08-16T10:53:11.199Z,1022.2
2017-08-16T10:58:16.626Z,1022.2
2017-08-16T11:03:22.047Z,1022.3
2017-08-16T11:08:27.466Z,1022.3
2017-08-16T11:13:33.222Z,1022.3
2017-08-16T11:18:38.973Z,1022.4
2017-08-16T11:23:44.734Z,1022.4
2017-08-16T11:28:49.828Z,1022.4
2017-08-16T11:33:55.584Z,1022.4
2017-08-16T11:39:01.002Z,1022.4
2017-08-16T11:44:06.756Z,1022.4
2017-08-16T11:49:12.174Z,1022.5
2017-08-16T11:54:17.927Z,1022.5
2017-08-16T11:59:22.340Z,1022.5
2017-08-16T12:04:28.095Z,1022.5
2017-08-16T12:09:33.849Z,1022.5
2017-08-16T12:14:38.934Z,1022.4
2017-08-16T12:19:44.351Z,1022.5
2017-08-16T12:24:49.435Z,1022.4
2017-08-16T12:29:54.521Z,1022.5
2017-08-16T12:34:59.602Z,1022.5
2017-08-16T12:40:05.358Z,1022.4
2017-08-16T12:45:10.435Z,1022.5
2017-08-16T12:50:15.853Z,1022.5
2017-08-16T12:55:21.608Z,1022.4
2017-08-16T13:00:27.021Z,1022.4
2017-08-16T13:05:31.432Z,1022.4
2017-08-16T13:10:36.852Z,1022.3
2017-08-16T13:15:42.606Z,1022.4
2017-08-16T13:20:47.684Z,1022.4
2017-08-16T13:25:53.098Z,1022.2
2017-08-16T13:30:59.182Z,1022.2
2017-08-16T13:36:04.943Z,1022.2
2017-08-16T13:41:10.356Z,1022.2
2017-08-16T13:46:15.770Z,1022.2
2017-08-16T13:51:21.905Z,1022.1
2017-08-16T13:56:27.650Z,1022.1
2017-08-16T14:01:32.736Z,1022.1
2017-08-16T14:06:38.145Z,1022.1
2017-08-16T14:11:43.892Z,1022.2
2017-08-16T14:16:49.639Z,1022.2
2017-08-16T14:21:55.824Z,1022.2
2017-08-16T14:27:00.911Z,1022.2
2017-08-16T14:32:05.986Z,1022.2
2017-08-16T14:37:11.397Z,1022.2
2017-08-16T14:42:16.806Z,1022.2
2017-08-16T14:47:22.887Z,1022.3
2017-08-16T14:52:28.163Z,1022.2
2017-08-16T14:57:33.577Z,1022.2
2017-08-16T15:02:38.653Z,1022.2
2017-08-16T15:07:44.065Z,1022.1
2017-08-16T15:12:49.814Z,1022.1
2017-08-16T15:17:55.224Z,1022.1
2017-08-16T15:23:01.308Z,1022.1
2017-08-16T15:28:06.053Z,1022.2
2017-08-16T15:33:11.131Z,1022.1
2017-08-16T15:38:16.545Z,1022.3
2017-08-16T15:43:21.958Z,1022.3
2017-08-16T15:48:27.368Z,1022.3
2017-08-16T15:53:31.776Z,1022.3
2017-08-16T15:58:37.536Z,1022.4
2017-08-16T16:03:43.276Z,1022.4
2017-08-16T16:08:48.018Z,1022.3
2017-08-16T16:13:53.762Z,1022.4
2017-08-16T16:18:59.171Z,1022.3
2017-08-16T16:24:04.920Z,1022.3
2017-08-16T16:29:10.335Z,1022.3
2017-08-16T16:34:15.744Z,1022.3
2017-08-16T16:39:21.153Z,1022.2
2017-08-16T16:44:26.565Z,1022.2
2017-08-16T16:49:32.648Z,1022.2
2017-08-16T16:54:38.395Z,1022.2
2017-08-16T16:59:44.470Z,1022.1
2017-08-16T17:04:50.215Z,1022.1
2017-08-16T17:09:55.961Z,1022.1
2017-08-16T17:15:00.703Z,1022
2017-08-16T17:20:06.502Z,1022.1
2017-08-16T17:25:11.904Z,1022.1
2017-08-16T17:30:16.996Z,1022
2017-08-16T17:35:22.410Z,1022
2017-08-16T17:40:27.822Z,1022
2017-08-16T17:45:33.231Z,1022
2017-08-16T17:50:38.983Z,1022
2017-08-16T17:55:44.729Z,1022
2017-08-16T18:00:50.483Z,1022
2017-08-16T18:05:56.235Z,1022
2017-08-16T18:11:02.323Z,1022.1
2017-08-16T18:16:08.075Z,1022.1
2017-08-16T18:21:13.154Z,1022.2
2017-08-16T18:26:18.576Z,1022.3
2017-08-16T18:31:23.657Z,1022.3
2017-08-16T18:36:28.735Z,1022.3
2017-08-16T18:41:34.482Z,1022.3
2017-08-16T18:46:39.906Z,1022.2
2017-08-16T18:51:45.658Z,1022.2
2017-08-16T18:56:51.742Z,1022.3
2017-08-16T19:01:57.827Z,1022.4
2017-08-16T19:07:03.910Z,1022.3
2017-08-16T19:12:09.659Z,1022.3
2017-08-16T19:17:15.405Z,1022.3
2017-08-16T19:22:20.479Z,1022.3
2017-08-16T19:27:25.891Z,1022.3
2017-08-16T19:32:30.630Z,1022.3
2017-08-16T19:37:35.706Z,1022.3
2017-08-16T19:42:40.441Z,1022.2
2017-08-16T19:47:46.181Z,1022.2
2017-08-16T19:52:51.927Z,1022.2
2017-08-16T19:57:57.671Z,1022.2
2017-08-16T20:03:02.740Z,1022.2
2017-08-16T20:08:07.476Z,1022.2
2017-08-16T20:13:12.549Z,1022.2
2017-08-16T20:18:18.296Z,1022.2
2017-08-16T20:23:23.708Z,1022.4
2017-08-16T20:28:29.115Z,1022.3
2017-08-16T20:33:34.856Z,1022.4
2017-08-16T20:38:40.275Z,1022.3
2017-08-16T20:43:45.339Z,1022.2
2017-08-16T20:48:50.743Z,1022.2
2017-08-16T20:53:56.820Z,1022.2
2017-08-16T20:59:02.589Z,1022.1
2017-08-16T21:04:07.662Z,1022.2
2017-08-16T21:09:13.426Z,1022.2
2017-08-16T21:14:18.531Z,1022.2
2017-08-16T21:19:24.626Z,1022.2
2017-08-16T21:24:30.035Z,1022.1
2017-08-16T21:29:35.459Z,1022.2
2017-08-16T21:34:41.229Z,1022.1
2017-08-16T21:39:46.977Z,1022.1
2017-08-16T21:44:52.726Z,1022.1
2017-08-16T21:49:58.139Z,1022
2017-08-16T21:55:03.217Z,1021.9
2017-08-16T22:00:08.618Z,1021.9
2017-08-16T22:05:14.363Z,1021.9
2017-08-16T22:10:20.105Z,1021.8
2017-08-16T22:15:26.182Z,1021.8
2017-08-16T22:20:31.926Z,1021.8
2017-08-16T22:25:37.669Z,1021.8
2017-08-16T22:30:43.413Z,1021.7
2017-08-16T22:35:49.153Z,1021.7
2017-08-16T22:40:54.904Z,1021.7
2017-08-16T22:46:00.659Z,1021.6
2017-08-16T22:51:06.061Z,1021.6
2017-08-16T22:56:12.145Z,1021.6
2017-08-16T23:01:17.889Z,1021.5
2017-08-16T23:06:23.632Z,1021.5
2017-08-16T23:11:28.735Z,1021.6
2017-08-16T23:16:33.472Z,1021.5
2017-08-16T23:21:38.546Z,1021.4
2017-08-16T23:26:43.953Z,1021.4
2017-08-16T23:31:49.696Z,1021.3
2017-08-16T23:36:54.770Z,1021.3
2017-08-16T23:42:00.177Z,1021.2
2017-08-16T23:47:05.588Z,1021.1
2017-08-16T23:52:10.657Z,1021
2017-08-16T23:57:16.068Z,1020.9
